Kinross, Iowa
Current Conditions -  °F | °C
As of 10:35 AM on Tuesday 21 Oct 2014 (Local Time) from KOOA Reporting Station
Clear Clear  
Wind Chill: 56°   Ceiling: Unl
Heat Index: 56°   Visibility: 10mi
Dew Point: 43°   Wind: 9mph
Humidity: 62%   Direction: 100°E
Pressure: 30.18"   Gusts: NA
Location:  41.4707°N, 92.1243°W
Report Text: KOOA 211535Z AUTO 10008KT 10SM CLR 13/06 A3018 RMK AO2 T01330061
Loading
Personal Weather Stations






























Interactive Weather Map
Tropical Storm Tracking
New forecast layout! Learn more

10-Day Weather Forecast

Advertisements
Track Severe Weather on mobile